createdAt,value
2022-10-22T00:01:07.984Z,9.33
2022-10-22T00:03:39.111Z,9.33
2022-10-22T00:06:07.405Z,9.32
2022-10-22T00:08:35.246Z,9.35
2022-10-22T00:11:12.503Z,10.07
2022-10-22T00:13:40.482Z,11.15
2022-10-22T00:16:08.632Z,11.84
2022-10-22T00:18:36.840Z,12.31
2022-10-22T00:21:05.834Z,12.33
2022-10-22T00:23:33.948Z,11.76
2022-10-22T00:26:01.723Z,11.20
2022-10-22T00:28:29.482Z,10.79
2022-10-22T00:30:58.607Z,10.48
2022-10-22T00:33:27.328Z,10.20
2022-10-22T00:35:55.124Z,9.97
2022-10-22T00:38:22.849Z,9.84
2022-10-22T00:40:50.834Z,10.64
2022-10-22T00:43:19.426Z,11.54
2022-10-22T00:45:47.278Z,12.09
2022-10-22T00:48:27.408Z,12.48
2022-10-22T00:51:01.495Z,12.85
2022-10-22T00:53:44.125Z,13.14
2022-10-22T00:56:11.881Z,13.36
2022-10-22T00:58:44.290Z,13.52
2022-10-22T01:01:17.493Z,13.63
2022-10-22T01:03:45.342Z,13.71
2022-10-22T01:06:19.660Z,13.83
2022-10-22T01:09:04.135Z,13.92
2022-10-22T01:12:14.164Z,13.43
2022-10-22T01:15:33.514Z,12.44
2022-10-22T01:18:11.369Z,11.66
2022-10-22T01:21:03.596Z,11.22
2022-10-22T01:24:47.373Z,10.80
2022-10-22T01:27:35.374Z,10.30
2022-10-22T01:30:09.017Z,10.02
2022-10-22T01:32:50.296Z,9.80
2022-10-22T01:35:22.780Z,9.61
2022-10-22T01:37:58.126Z,9.53
2022-10-22T01:40:26.042Z,10.59
2022-10-22T01:43:06.061Z,12.03
2022-10-22T01:45:43.258Z,12.89
2022-10-22T01:48:36.128Z,13.34
2022-10-22T01:51:22.708Z,13.70
2022-10-22T01:54:22.240Z,13.95
2022-10-22T01:57:21.111Z,13.93
2022-10-22T02:00:09.867Z,13.00
2022-10-22T02:02:40.748Z,12.10
2022-10-22T02:05:19.866Z,11.47
2022-10-22T02:07:55.508Z,10.90
2022-10-22T02:10:23.339Z,10.47
2022-10-22T02:12:53.558Z,10.13
2022-10-22T02:15:22.132Z,9.84
2022-10-22T02:17:49.910Z,9.61
2022-10-22T02:20:26.173Z,9.42
2022-10-22T02:22:53.973Z,9.41
2022-10-22T02:25:22.725Z,10.65
2022-10-22T02:28:13.628Z,11.87
2022-10-22T02:30:43.029Z,12.42
2022-10-22T02:33:20.981Z,12.67
2022-10-22T02:35:48.799Z,12.80
2022-10-22T02:38:16.565Z,13.00
2022-10-22T02:40:44.380Z,13.18
2022-10-22T02:43:12.189Z,13.38
2022-10-22T02:45:40.053Z,13.54
2022-10-22T02:48:08.054Z,13.66
2022-10-22T02:50:35.991Z,13.75
2022-10-22T02:53:03.856Z,13.87
2022-10-22T02:55:31.581Z,13.62
2022-10-22T02:57:59.426Z,12.77
2022-10-22T03:00:27.818Z,12.01
2022-10-22T03:02:55.638Z,11.37
2022-10-22T03:05:23.389Z,10.86
2022-10-22T03:07:51.154Z,10.45
2022-10-22T03:10:18.962Z,10.11
2022-10-22T03:12:46.780Z,9.82
2022-10-22T03:15:14.772Z,9.55
2022-10-22T03:17:42.917Z,9.33
2022-10-22T03:20:10.993Z,10.38
2022-10-22T03:22:39.428Z,12.07
2022-10-22T03:25:10.746Z,13.28
2022-10-22T03:27:38.796Z,13.70
2022-10-22T03:30:07.880Z,12.84
2022-10-22T03:32:35.748Z,11.83
2022-10-22T03:35:05.616Z,11.04
2022-10-22T03:37:33.341Z,10.50
2022-10-22T03:40:01.106Z,11.23
2022-10-22T03:42:28.956Z,12.80
2022-10-22T03:44:56.816Z,13.29
2022-10-22T03:47:24.832Z,13.76
2022-10-22T03:49:52.754Z,14.14
2022-10-22T03:52:20.584Z,13.50
2022-10-22T03:54:48.384Z,12.34
2022-10-22T03:57:16.146Z,11.44
2022-10-22T03:59:45.351Z,10.76
2022-10-22T04:02:13.623Z,10.23
2022-10-22T04:04:41.389Z,10.19
2022-10-22T04:07:09.347Z,11.61
2022-10-22T04:09:37.624Z,12.93
2022-10-22T04:12:06.717Z,13.50
2022-10-22T04:14:34.419Z,14.05
2022-10-22T04:17:02.259Z,13.60
2022-10-22T04:19:30.113Z,12.57
2022-10-22T04:21:59.957Z,11.74
2022-10-22T04:24:28.097Z,11.12
2022-10-22T04:26:56.131Z,10.62
2022-10-22T04:29:24.444Z,10.23
2022-10-22T04:31:52.513Z,9.91
2022-10-22T04:34:20.376Z,9.65
2022-10-22T04:36:48.242Z,9.43
2022-10-22T04:39:16.110Z,9.40
2022-10-22T04:41:43.872Z,10.48
2022-10-22T04:44:14.070Z,11.46
2022-10-22T04:46:44.124Z,11.98
2022-10-22T04:49:11.909Z,12.26
2022-10-22T04:51:39.737Z,12.49
2022-10-22T04:54:07.572Z,12.71
2022-10-22T04:56:35.365Z,12.88
2022-10-22T04:59:05.973Z,13.06
2022-10-22T05:01:40.028Z,13.05
2022-10-22T05:04:13.496Z,12.28
2022-10-22T05:06:41.527Z,11.36
2022-10-22T05:09:13.952Z,10.68
2022-10-22T05:11:45.513Z,10.13
2022-10-22T05:14:13.467Z,9.70
2022-10-22T05:16:41.288Z,9.34
2022-10-22T05:19:12.756Z,9.04
2022-10-22T05:21:40.752Z,8.76
2022-10-22T05:24:08.921Z,8.52
2022-10-22T05:26:36.661Z,8.31
2022-10-22T05:29:04.555Z,8.14
2022-10-22T05:31:32.521Z,8.01
2022-10-22T05:34:00.281Z,8.39
2022-10-22T05:36:28.197Z,9.66
2022-10-22T05:38:57.156Z,10.92
2022-10-22T05:41:26.134Z,12.00
2022-10-22T05:43:58.401Z,12.84
2022-10-22T05:46:28.851Z,13.58
2022-10-22T05:48:59.346Z,13.56
2022-10-22T05:51:28.861Z,12.72
2022-10-22T05:54:01.666Z,12.00
2022-10-22T05:56:30.685Z,11.41
2022-10-22T05:58:58.629Z,10.97
2022-10-22T06:01:29.434Z,10.61
2022-10-22T06:04:00.098Z,10.30
2022-10-22T06:06:44.168Z,10.47
2022-10-22T06:12:03.802Z,12.47
2022-10-22T06:14:32.904Z,12.94
2022-10-22T06:17:00.877Z,13.38
2022-10-22T06:19:30.164Z,13.27
2022-10-22T06:21:58.141Z,12.86
2022-10-22T06:24:25.960Z,12.56
2022-10-22T06:26:53.927Z,12.37
2022-10-22T06:29:21.837Z,12.17
2022-10-22T06:31:49.573Z,12.07
2022-10-22T06:34:19.044Z,12.08
2022-10-22T06:36:47.106Z,12.15
2022-10-22T06:39:16.816Z,12.25
2022-10-22T06:41:44.780Z,12.31
2022-10-22T06:44:15.275Z,12.39
2022-10-22T06:46:43.617Z,12.48
2022-10-22T06:49:15.165Z,12.48
2022-10-22T06:51:43.170Z,12.44
2022-10-22T06:54:11.242Z,12.36
2022-10-22T06:56:39.107Z,12.30
2022-10-22T06:59:06.971Z,12.66
2022-10-22T07:01:35.248Z,13.68
2022-10-22T07:04:03.523Z,14.66
2022-10-22T07:06:31.489Z,15.12
2022-10-22T07:09:00.373Z,14.63
2022-10-22T07:11:30.875Z,14.04
2022-10-22T07:13:59.644Z,13.57
2022-10-22T07:16:31.309Z,13.20
2022-10-22T07:19:01.776Z,12.98
2022-10-22T07:21:30.059Z,12.85
2022-10-22T07:23:59.258Z,12.82
2022-10-22T07:26:30.955Z,12.83
2022-10-22T07:29:00.871Z,12.90
2022-10-22T07:31:28.732Z,12.98
2022-10-22T07:33:57.458Z,13.09
2022-10-22T07:36:25.334Z,13.28
2022-10-22T07:38:57.746Z,13.54
2022-10-22T07:41:26.451Z,13.78
2022-10-22T07:43:54.374Z,13.97
2022-10-22T07:46:22.356Z,14.11
2022-10-22T07:48:50.259Z,14.20
2022-10-22T07:51:17.986Z,14.19
2022-10-22T07:53:45.821Z,14.23
2022-10-22T07:56:14.199Z,14.31
2022-10-22T07:58:42.064Z,14.39
2022-10-22T08:01:09.955Z,14.49
2022-10-22T08:03:37.808Z,14.59
2022-10-22T08:06:05.972Z,14.66
2022-10-22T08:08:34.834Z,14.74
2022-10-22T08:11:02.732Z,14.77
2022-10-22T08:13:30.781Z,14.71
2022-10-22T08:16:00.179Z,14.71
2022-10-22T08:18:28.371Z,14.70
2022-10-22T08:20:56.363Z,14.73
2022-10-22T08:23:26.146Z,14.83
2022-10-22T08:25:57.610Z,14.97
2022-10-22T08:28:25.874Z,15.10
2022-10-22T08:30:53.650Z,15.24
2022-10-22T08:33:22.382Z,15.28
2022-10-22T08:35:51.077Z,15.28
2022-10-22T08:38:19.085Z,15.23
2022-10-22T08:40:53.190Z,15.16
2022-10-22T08:44:02.344Z,15.16
2022-10-22T08:46:44.397Z,15.27
2022-10-22T08:49:24.783Z,15.40
2022-10-22T08:51:52.591Z,15.52
2022-10-22T08:54:45.324Z,15.63
2022-10-22T08:57:34.286Z,15.74
2022-10-22T09:00:10.837Z,15.86
2022-10-22T09:03:00.631Z,15.96
2022-10-22T09:05:40.299Z,15.97
2022-10-22T09:08:16.425Z,15.89
2022-10-22T09:10:49.227Z,15.82
2022-10-22T09:13:21.532Z,15.77
2022-10-22T09:15:53.261Z,15.67
2022-10-22T09:18:36.639Z,15.67
2022-10-22T09:21:33.478Z,15.64
2022-10-22T09:24:10.767Z,15.63
2022-10-22T09:26:39.940Z,15.70
2022-10-22T09:29:13.693Z,15.70
2022-10-22T09:31:41.643Z,15.69
2022-10-22T09:34:09.463Z,15.71
2022-10-22T09:36:37.233Z,15.67
2022-10-22T09:39:05.377Z,15.68
2022-10-22T09:41:33.307Z,15.74
2022-10-22T09:44:01.063Z,15.78
2022-10-22T09:46:29.773Z,15.83
2022-10-22T09:49:01.709Z,15.96
2022-10-22T09:51:59.797Z,16.08
2022-10-22T09:54:33.749Z,16.18
2022-10-22T09:57:22.077Z,16.28
2022-10-22T09:59:52.538Z,16.41
2022-10-22T10:02:39.237Z,16.52
2022-10-22T10:05:07.862Z,16.60
2022-10-22T10:07:36.087Z,16.69
2022-10-22T10:10:19.072Z,16.81
2022-10-22T10:12:58.612Z,16.97
2022-10-22T10:15:49.225Z,17.02
2022-10-22T10:18:47.836Z,17.07
2022-10-22T10:21:36.150Z,17.09
2022-10-22T10:24:13.076Z,17.08
2022-10-22T10:26:52.441Z,17.06
2022-10-22T10:29:47.277Z,17.00
2022-10-22T10:33:12.816Z,16.93
2022-10-22T10:35:55.104Z,16.82
2022-10-22T10:38:34.840Z,16.81
2022-10-22T10:41:23.866Z,16.89
2022-10-22T10:44:48.531Z,17.01
2022-10-22T10:47:33.699Z,17.15
2022-10-22T10:50:18.638Z,17.25
2022-10-22T10:53:27.364Z,17.26
2022-10-22T10:56:21.161Z,17.31
2022-10-22T10:59:12.742Z,17.42
2022-10-22T11:02:15.382Z,17.66
2022-10-22T11:05:04.837Z,17.80
2022-10-22T11:07:39.317Z,17.88
2022-10-22T11:10:25.076Z,17.88
2022-10-22T11:12:53.568Z,17.81
2022-10-22T11:15:28.522Z,17.71
2022-10-22T11:18:19.029Z,17.70
2022-10-22T11:21:01.292Z,17.64
2022-10-22T11:24:08.338Z,17.64
2022-10-22T11:26:45.690Z,17.64
2022-10-22T11:29:20.264Z,17.65
2022-10-22T11:31:48.741Z,17.66
2022-10-22T11:34:39.379Z,17.64
2022-10-22T11:37:07.168Z,17.64
2022-10-22T11:39:45.910Z,17.70
2022-10-22T11:42:21.270Z,17.74
2022-10-22T11:45:14.887Z,17.74
2022-10-22T11:47:58.949Z,17.67
2022-10-22T11:50:47.116Z,17.62
2022-10-22T11:53:14.903Z,17.51
2022-10-22T11:56:00.114Z,17.38
2022-10-22T11:58:39.338Z,17.18
2022-10-22T12:01:07.275Z,17.02
2022-10-22T12:03:35.138Z,16.89
2022-10-22T12:06:11.885Z,16.77
2022-10-22T12:08:48.620Z,16.71
2022-10-22T12:11:19.395Z,16.63
2022-10-22T12:14:02.252Z,16.54
2022-10-22T12:16:54.590Z,16.46
2022-10-22T12:19:36.189Z,16.40
2022-10-22T12:22:09.976Z,16.35
2022-10-22T12:24:41.713Z,16.35
2022-10-22T12:27:27.080Z,16.35
2022-10-22T12:29:57.208Z,16.32
2022-10-22T12:32:41.345Z,16.30
2022-10-22T12:35:17.055Z,16.29
2022-10-22T12:37:45.100Z,16.26
2022-10-22T12:40:17.618Z,16.25
2022-10-22T12:42:56.612Z,16.23
2022-10-22T12:45:33.287Z,16.20
2022-10-22T12:48:27.287Z,16.17
2022-10-22T12:50:58.081Z,16.09
2022-10-22T12:53:31.519Z,16.03
2022-10-22T12:56:08.555Z,15.96
2022-10-22T12:58:49.552Z,15.87
2022-10-22T13:01:17.765Z,15.77
2022-10-22T13:03:50.540Z,15.67
2022-10-22T13:06:18.255Z,15.59
2022-10-22T13:09:05.920Z,15.51
2022-10-22T13:11:38.818Z,15.42
2022-10-22T13:14:21.694Z,15.33
2022-10-22T13:17:36.953Z,15.25
2022-10-22T13:20:21.473Z,15.15
2022-10-22T13:23:00.629Z,15.03
2022-10-22T13:25:35.971Z,14.94
2022-10-22T13:28:21.008Z,14.84
2022-10-22T13:30:57.496Z,14.77
2022-10-22T13:33:37.118Z,14.71
2022-10-22T13:36:05.293Z,14.63
2022-10-22T13:38:33.164Z,14.57
2022-10-22T13:41:03.279Z,14.52
2022-10-22T13:43:31.286Z,14.46
2022-10-22T13:45:59.379Z,14.41
2022-10-22T13:48:28.501Z,14.39
2022-10-22T13:50:56.462Z,15.02
2022-10-22T13:53:26.292Z,15.96
2022-10-22T13:55:54.511Z,16.64
2022-10-22T13:58:26.009Z,17.08
2022-10-22T14:00:57.286Z,16.79
2022-10-22T14:03:33.464Z,16.20
2022-10-22T14:06:01.540Z,15.70
2022-10-22T14:08:29.502Z,15.36
2022-10-22T14:10:57.489Z,15.10
2022-10-22T14:13:25.666Z,14.96
2022-10-22T14:15:53.476Z,15.59
2022-10-22T14:18:31.751Z,16.20
2022-10-22T14:21:04.881Z,15.90
2022-10-22T14:23:34.178Z,15.35
2022-10-22T14:26:02.301Z,14.96
2022-10-22T14:28:31.594Z,14.66
2022-10-22T14:31:11.102Z,14.50
2022-10-22T14:33:39.265Z,15.14
2022-10-22T14:36:07.339Z,15.95
2022-10-22T14:38:35.166Z,16.48
2022-10-22T14:41:03.025Z,16.84
2022-10-22T14:43:31.393Z,17.09
2022-10-22T14:45:59.409Z,17.28
2022-10-22T14:48:27.161Z,17.45
2022-10-22T14:50:55.021Z,17.57
2022-10-22T14:53:22.953Z,17.58
2022-10-22T14:55:51.671Z,17.26
2022-10-22T14:58:20.080Z,16.40
2022-10-22T15:00:47.989Z,15.61
2022-10-22T15:03:16.014Z,15.04
2022-10-22T15:05:44.897Z,14.59
2022-10-22T15:08:14.544Z,14.76
2022-10-22T15:10:42.598Z,15.39
2022-10-22T15:13:10.541Z,15.91
2022-10-22T15:15:41.444Z,16.22
2022-10-22T15:18:09.443Z,16.44
2022-10-22T15:20:37.366Z,16.58
2022-10-22T15:23:05.388Z,16.69
2022-10-22T15:25:33.337Z,16.80
2022-10-22T15:28:09.189Z,16.74
2022-10-22T15:30:38.009Z,16.21
2022-10-22T15:33:06.524Z,15.43
2022-10-22T15:35:34.573Z,15.21
2022-10-22T15:38:02.748Z,15.70
2022-10-22T15:40:30.673Z,16.09
2022-10-22T15:42:58.619Z,16.23
2022-10-22T15:45:26.796Z,16.31
2022-10-22T15:47:54.771Z,16.46
2022-10-22T15:50:22.679Z,16.57
2022-10-22T15:52:50.535Z,16.66
2022-10-22T15:55:19.055Z,16.73
2022-10-22T15:57:47.077Z,16.80
2022-10-22T16:00:15.599Z,16.85
2022-10-22T16:02:44.320Z,16.86
2022-10-22T16:05:12.545Z,16.88
2022-10-22T16:07:40.733Z,16.88
2022-10-22T16:10:12.900Z,16.91
2022-10-22T16:12:41.619Z,16.91
2022-10-22T16:15:10.549Z,16.58
2022-10-22T16:17:38.670Z,15.81
2022-10-22T16:20:10.519Z,15.08
2022-10-22T16:22:38.866Z,15.18
2022-10-22T16:25:07.847Z,15.67
2022-10-22T16:27:35.820Z,16.05
2022-10-22T16:30:04.226Z,16.24
2022-10-22T16:32:32.587Z,16.28
2022-10-22T16:35:00.601Z,16.34
2022-10-22T16:37:28.737Z,16.39
2022-10-22T16:39:56.836Z,16.37
2022-10-22T16:42:25.106Z,16.42
2022-10-22T16:44:53.157Z,16.39
2022-10-22T16:47:21.191Z,16.40
2022-10-22T16:49:49.346Z,16.46
2022-10-22T16:52:17.310Z,16.56
2022-10-22T16:54:46.910Z,16.57
2022-10-22T16:57:15.031Z,16.46
2022-10-22T16:59:43.121Z,16.44
2022-10-22T17:02:11.334Z,16.39
2022-10-22T17:04:39.381Z,16.38
2022-10-22T17:07:07.408Z,16.40
2022-10-22T17:09:35.459Z,16.40
2022-10-22T17:12:03.753Z,16.43
2022-10-22T17:14:31.652Z,16.41
2022-10-22T17:16:59.692Z,16.27
2022-10-22T17:19:27.686Z,16.28
2022-10-22T17:21:56.770Z,16.30
2022-10-22T17:24:27.237Z,16.36
2022-10-22T17:26:57.198Z,16.42
2022-10-22T17:29:25.689Z,16.51
2022-10-22T17:31:53.460Z,16.47
2022-10-22T17:34:21.273Z,16.40
2022-10-22T17:36:49.338Z,16.38
2022-10-22T17:39:18.423Z,16.38
2022-10-22T17:41:46.338Z,16.34
2022-10-22T17:44:14.467Z,16.33
2022-10-22T17:46:43.882Z,16.32
2022-10-22T17:49:17.284Z,16.35
2022-10-22T17:51:48.480Z,16.32
2022-10-22T17:54:18.430Z,16.29
2022-10-22T17:56:46.238Z,16.26
2022-10-22T17:59:15.140Z,16.29
2022-10-22T18:01:46.990Z,16.24
2022-10-22T18:04:17.120Z,16.28
2022-10-22T18:06:47.101Z,16.30
2022-10-22T18:09:18.537Z,16.31
2022-10-22T18:11:48.609Z,16.36
2022-10-22T18:14:20.581Z,16.25
2022-10-22T18:16:48.724Z,16.32
2022-10-22T18:19:19.765Z,16.40
2022-10-22T18:21:47.626Z,16.45
2022-10-22T18:24:15.793Z,16.38
2022-10-22T18:26:43.692Z,16.29
2022-10-22T18:29:15.040Z,16.21
2022-10-22T18:31:42.920Z,16.26
2022-10-22T18:34:11.009Z,16.23
2022-10-22T18:36:38.877Z,16.20
2022-10-22T18:39:06.616Z,16.21
2022-10-22T18:41:35.977Z,16.16
2022-10-22T18:44:05.344Z,16.21
2022-10-22T18:46:39.438Z,16.17
2022-10-22T18:49:07.563Z,16.14
2022-10-22T18:51:35.889Z,16.19
2022-10-22T18:54:18.239Z,16.15
2022-10-22T18:56:50.362Z,16.06
2022-10-22T18:59:24.618Z,16.18
2022-10-22T19:01:53.467Z,16.21
2022-10-22T19:04:21.730Z,16.14
2022-10-22T19:06:49.837Z,16.18
2022-10-22T19:09:18.705Z,16.19
2022-10-22T19:11:46.629Z,16.17
2022-10-22T19:14:19.638Z,16.15
2022-10-22T19:16:47.730Z,16.20
2022-10-22T19:19:18.402Z,16.24
2022-10-22T19:21:49.986Z,16.31
2022-10-22T19:24:18.996Z,16.30
2022-10-22T19:26:47.318Z,16.24
2022-10-22T19:29:16.724Z,16.29
2022-10-22T19:31:46.788Z,16.26
2022-10-22T19:34:14.730Z,16.24
2022-10-22T19:36:42.785Z,16.22
2022-10-22T19:39:10.834Z,16.26
2022-10-22T19:41:38.948Z,16.31
2022-10-22T19:44:07.899Z,16.34
2022-10-22T19:46:35.726Z,16.38
2022-10-22T19:49:03.814Z,16.40
2022-10-22T19:51:31.987Z,16.42
2022-10-22T19:54:03.424Z,16.47
2022-10-22T19:56:31.797Z,16.38
2022-10-22T19:58:59.817Z,16.30
2022-10-22T20:01:27.802Z,16.35
2022-10-22T20:03:55.714Z,16.37
2022-10-22T20:06:24.167Z,16.39
2022-10-22T20:08:55.254Z,16.45
2022-10-22T20:11:26.950Z,16.47
2022-10-22T20:13:55.163Z,16.40
2022-10-22T20:16:25.563Z,16.35
2022-10-22T20:18:53.472Z,16.28
2022-10-22T20:21:21.395Z,16.31
2022-10-22T20:23:52.700Z,16.30
2022-10-22T20:26:21.227Z,16.10
2022-10-22T20:28:49.135Z,16.03
2022-10-22T20:31:20.021Z,15.95
2022-10-22T20:33:48.890Z,15.97
2022-10-22T20:36:19.559Z,16.04
2022-10-22T20:38:48.388Z,15.98
2022-10-22T20:41:21.516Z,16.01
2022-10-22T20:43:50.691Z,16.04
2022-10-22T20:46:19.509Z,16.01
2022-10-22T20:48:47.351Z,16.00
2022-10-22T20:51:15.203Z,16.13
2022-10-22T20:53:43.075Z,16.23
2022-10-22T20:56:11.105Z,16.20
2022-10-22T20:58:39.259Z,16.19
2022-10-22T21:01:10.879Z,16.09
2022-10-22T21:03:39.111Z,16.12
2022-10-22T21:06:07.169Z,16.20
2022-10-22T21:08:34.921Z,16.18
2022-10-22T21:11:02.706Z,16.13
2022-10-22T21:13:33.569Z,16.00
2022-10-22T21:16:08.749Z,16.01
2022-10-22T21:18:36.745Z,16.05
2022-10-22T21:21:06.160Z,16.12
2022-10-22T21:23:34.543Z,16.11
2022-10-22T21:26:02.393Z,16.09
2022-10-22T21:28:35.421Z,16.11
2022-10-22T21:31:08.873Z,16.04
2022-10-22T21:33:37.957Z,16.00
2022-10-22T21:36:06.779Z,15.93
2022-10-22T21:38:34.684Z,16.03
2022-10-22T21:41:13.015Z,16.09
2022-10-22T21:43:42.011Z,15.97
2022-10-22T21:46:11.507Z,16.01
2022-10-22T21:48:40.551Z,16.00
2022-10-22T21:51:17.109Z,16.07
2022-10-22T21:53:45.200Z,16.09
2022-10-22T21:56:22.122Z,16.13
2022-10-22T21:58:49.898Z,16.16
2022-10-22T22:01:17.794Z,16.22
2022-10-22T22:03:49.152Z,16.28
2022-10-22T22:06:21.302Z,16.24
2022-10-22T22:08:50.051Z,16.25
2022-10-22T22:11:24.084Z,16.26
2022-10-22T22:13:52.939Z,16.22
2022-10-22T22:16:27.208Z,16.24
2022-10-22T22:19:02.261Z,16.21
2022-10-22T22:21:30.067Z,16.22
2022-10-22T22:23:58.132Z,16.25
2022-10-22T22:26:29.736Z,16.27
2022-10-22T22:28:58.636Z,16.25
2022-10-22T22:31:32.222Z,16.29
2022-10-22T22:34:01.635Z,16.34
2022-10-22T22:36:34.606Z,16.30
2022-10-22T22:39:02.583Z,16.16
2022-10-22T22:41:30.627Z,16.13
2022-10-22T22:43:58.534Z,16.14
2022-10-22T22:46:26.536Z,16.06
2022-10-22T22:48:54.330Z,16.13
2022-10-22T22:51:22.131Z,16.14
2022-10-22T22:53:50.055Z,16.15
2022-10-22T22:56:23.638Z,16.08
2022-10-22T22:58:51.470Z,16.05
2022-10-22T23:01:23.713Z,16.02
2022-10-22T23:03:59.057Z,16.00
2022-10-22T23:06:29.038Z,16.04
2022-10-22T23:08:57.516Z,16.04
2022-10-22T23:11:26.042Z,16.05
2022-10-22T23:14:01.626Z,16.05
2022-10-22T23:16:32.056Z,15.99
2022-10-22T23:19:00.290Z,15.99
2022-10-22T23:21:30.360Z,15.97
2022-10-22T23:24:00.710Z,16.00
2022-10-22T23:26:35.667Z,15.94
2022-10-22T23:29:09.986Z,15.85
2022-10-22T23:31:37.854Z,15.84
2022-10-22T23:34:06.818Z,15.95
2022-10-22T23:36:35.375Z,16.00
2022-10-22T23:39:07.548Z,16.02
2022-10-22T23:41:35.871Z,16.03
2022-10-22T23:44:04.389Z,15.96
2022-10-22T23:46:33.380Z,15.92
2022-10-22T23:49:01.559Z,15.84
2022-10-22T23:51:29.321Z,15.99
2022-10-22T23:54:00.030Z,16.02
2022-10-22T23:56:28.230Z,16.07
2022-10-22T23:58:56.342Z,15.99
